createdAt,value
2023-05-25T00:01:06.106Z,3.80
2023-05-25T00:03:34.052Z,4.38
2023-05-25T00:06:01.827Z,4.70
2023-05-25T00:08:29.848Z,5.07
2023-05-25T00:10:57.362Z,4.55
2023-05-25T00:13:24.455Z,4.07
2023-05-25T00:15:51.513Z,5.10
2023-05-25T00:18:18.989Z,4.35
2023-05-25T00:20:47.464Z,4.07
2023-05-25T00:23:14.807Z,4.50
2023-05-25T00:25:42.232Z,5.28
2023-05-25T00:28:10.740Z,5.00
2023-05-25T00:30:38.046Z,3.80
2023-05-25T00:33:05.531Z,3.95
2023-05-25T00:35:32.436Z,4.88
2023-05-25T00:37:59.420Z,4.65
2023-05-25T00:40:26.542Z,4.82
2023-05-25T00:42:53.583Z,3.85
2023-05-25T00:45:20.586Z,4.60
2023-05-25T00:47:54.727Z,4.20
2023-05-25T00:50:40.904Z,4.60
2023-05-25T00:53:09.100Z,4.60
2023-05-25T00:55:50.684Z,3.78
2023-05-25T01:00:49.851Z,4.10
2023-05-25T01:03:22.222Z,4.32
2023-05-25T01:05:51.482Z,4.57
2023-05-25T01:08:22.732Z,4.72
2023-05-25T01:10:51.682Z,5.18
2023-05-25T01:13:20.374Z,4.60
2023-05-25T01:15:49.028Z,4.55
2023-05-25T01:18:17.029Z,4.32
2023-05-25T01:21:15.188Z,5.32
2023-05-25T01:24:12.278Z,4.78
2023-05-25T01:26:47.261Z,4.07
2023-05-25T01:29:15.966Z,3.72
2023-05-25T01:31:43.617Z,4.28
2023-05-25T01:34:12.655Z,4.68
2023-05-25T01:36:39.758Z,4.80
2023-05-25T01:39:07.834Z,4.72
2023-05-25T01:41:34.927Z,4.20
2023-05-25T01:44:02.198Z,4.75
2023-05-25T01:46:35.943Z,4.20
2023-05-25T01:49:34.542Z,5.22
2023-05-25T01:52:25.946Z,4.32
2023-05-25T01:55:05.867Z,3.78
2023-05-25T01:57:36.799Z,4.45
2023-05-25T02:00:05.190Z,4.05
2023-05-25T02:02:34.541Z,4.22
2023-05-25T02:05:02.465Z,4.15
2023-05-25T02:07:29.339Z,3.97
2023-05-25T02:09:56.437Z,3.72
2023-05-25T02:12:23.563Z,3.92
2023-05-25T02:14:51.158Z,3.05
2023-05-25T02:17:18.340Z,3.45
2023-05-25T02:19:46.816Z,3.88
2023-05-25T02:22:13.792Z,3.40
2023-05-25T02:24:40.888Z,3.67
2023-05-25T02:27:08.001Z,2.97
2023-05-25T02:29:35.175Z,3.53
2023-05-25T02:32:02.197Z,4.50
2023-05-25T02:34:29.260Z,3.10
2023-05-25T02:36:59.610Z,2.75
2023-05-25T02:39:27.942Z,3.17
2023-05-25T02:41:55.071Z,3.17
2023-05-25T02:44:22.432Z,2.85
2023-05-25T02:46:49.485Z,3.03
2023-05-25T02:49:16.403Z,2.75
2023-05-25T02:51:43.393Z,2.65
2023-05-25T02:54:10.718Z,3.33
2023-05-25T02:56:37.730Z,2.88
2023-05-25T02:59:04.728Z,3.15
2023-05-25T03:01:32.097Z,3.40
2023-05-25T03:03:59.506Z,2.83
2023-05-25T03:06:26.706Z,3.90
2023-05-25T03:08:53.816Z,3.17
2023-05-25T03:11:21.046Z,3.28
2023-05-25T03:13:48.137Z,2.88
2023-05-25T03:16:15.146Z,2.72
2023-05-25T03:18:42.234Z,3.28
2023-05-25T03:21:09.213Z,2.78
2023-05-25T03:23:36.717Z,2.88
2023-05-25T03:26:03.897Z,2.65
2023-05-25T03:28:30.967Z,3.33
2023-05-25T03:30:58.548Z,3.20
2023-05-25T03:33:25.773Z,3.03
2023-05-25T03:35:52.890Z,3.22
2023-05-25T03:38:20.433Z,3.03
2023-05-25T03:40:47.653Z,3.28
2023-05-25T03:43:14.843Z,2.90
2023-05-25T03:45:41.875Z,2.92
2023-05-25T03:48:09.083Z,3.28
2023-05-25T03:50:36.001Z,3.45
2023-05-25T03:53:03.109Z,3.45
2023-05-25T03:55:30.970Z,2.65
2023-05-25T03:57:57.873Z,3.38
2023-05-25T04:00:24.960Z,3.13
2023-05-25T04:02:52.083Z,3.05
2023-05-25T04:05:19.659Z,2.90
2023-05-25T04:07:47.405Z,2.72
2023-05-25T04:10:14.481Z,2.97
2023-05-25T04:12:41.640Z,2.88
2023-05-25T04:15:09.763Z,2.60
2023-05-25T04:17:39.190Z,3.10
2023-05-25T04:20:09.028Z,2.65
2023-05-25T04:22:39.316Z,3.08
2023-05-25T04:25:10.716Z,2.95
2023-05-25T04:27:38.008Z,2.75
2023-05-25T04:30:06.028Z,2.30
2023-05-25T04:32:37.459Z,3.05
2023-05-25T04:35:05.927Z,2.60
2023-05-25T04:37:33.996Z,2.60
2023-05-25T04:40:01.663Z,2.25
2023-05-25T04:42:29.036Z,2.92
2023-05-25T04:44:56.027Z,2.78
2023-05-25T04:47:25.019Z,3.40
2023-05-25T04:49:52.148Z,2.10
2023-05-25T04:52:18.874Z,2.17
2023-05-25T04:54:46.884Z,2.05
2023-05-25T04:57:13.704Z,2.35
2023-05-25T04:59:41.024Z,2.25
2023-05-25T05:02:08.687Z,2.47
2023-05-25T05:04:37.315Z,2.08
2023-05-25T05:07:04.416Z,2.22
2023-05-25T05:09:31.217Z,2.28
2023-05-25T05:11:58.034Z,2.00
2023-05-25T05:14:24.889Z,2.20
2023-05-25T05:16:51.896Z,2.30
2023-05-25T05:19:18.852Z,2.20
2023-05-25T05:21:45.852Z,2.13
2023-05-25T05:24:12.696Z,1.90
2023-05-25T05:26:55.595Z,2.70
2023-05-25T05:29:24.882Z,2.05
2023-05-25T05:31:51.853Z,2.33
2023-05-25T05:34:18.741Z,2.35
2023-05-25T05:36:57.533Z,2.47
2023-05-25T05:39:26.109Z,2.53
2023-05-25T05:41:53.571Z,2.25
2023-05-25T05:44:26.948Z,2.28
2023-05-25T05:47:01.128Z,2.28
2023-05-25T05:49:29.349Z,1.92
2023-05-25T05:51:56.478Z,3.03
2023-05-25T05:54:23.817Z,2.33
2023-05-25T05:56:51.624Z,2.15
2023-05-25T05:59:18.468Z,2.20
2023-05-25T06:01:45.706Z,2.75
2023-05-25T06:04:12.667Z,2.20
2023-05-25T06:06:42.022Z,1.85
2023-05-25T06:09:09.156Z,2.42
2023-05-25T06:11:40.221Z,2.22
2023-05-25T06:14:07.108Z,1.67
2023-05-25T06:16:34.361Z,2.30
2023-05-25T06:19:01.507Z,2.00
2023-05-25T06:21:28.535Z,2.00
2023-05-25T06:23:57.916Z,2.28
2023-05-25T06:26:25.023Z,1.77
2023-05-25T06:28:51.923Z,1.67
2023-05-25T06:31:19.214Z,1.58
2023-05-25T06:33:46.162Z,1.77
2023-05-25T06:36:15.912Z,1.70
2023-05-25T06:38:43.378Z,1.75
2023-05-25T06:41:12.883Z,1.83
2023-05-25T06:43:43.244Z,1.55
2023-05-25T06:46:10.737Z,1.70
2023-05-25T06:48:39.560Z,2.00
2023-05-25T06:51:06.516Z,1.60
2023-05-25T06:53:33.284Z,1.35
2023-05-25T06:56:00.394Z,1.52
2023-05-25T06:58:27.540Z,1.52
2023-05-25T07:00:54.395Z,1.38
2023-05-25T07:03:21.994Z,1.80
2023-05-25T07:05:48.911Z,1.90
2023-05-25T07:08:16.162Z,1.67
2023-05-25T07:10:42.962Z,1.60
2023-05-25T07:13:11.148Z,1.33
2023-05-25T07:15:37.855Z,1.33
2023-05-25T07:18:04.884Z,1.63
2023-05-25T07:20:31.775Z,1.50
2023-05-25T07:22:58.562Z,1.60
2023-05-25T07:25:25.431Z,1.48
2023-05-25T07:27:55.303Z,1.55
2023-05-25T07:30:22.178Z,1.77
2023-05-25T07:32:49.027Z,1.77
2023-05-25T07:35:16.260Z,1.80
2023-05-25T07:37:43.140Z,1.42
2023-05-25T07:40:10.726Z,1.50
2023-05-25T07:42:37.548Z,1.63
2023-05-25T07:45:04.825Z,1.23
2023-05-25T07:47:31.670Z,1.80
2023-05-25T07:49:58.765Z,1.80
2023-05-25T07:52:25.552Z,1.65
2023-05-25T07:54:52.561Z,1.80
2023-05-25T07:57:21.632Z,1.70
2023-05-25T07:59:48.402Z,1.73
2023-05-25T08:02:15.304Z,1.20
2023-05-25T08:04:42.160Z,1.90
2023-05-25T08:07:09.160Z,1.70
2023-05-25T08:09:36.111Z,1.48
2023-05-25T08:12:21.262Z,1.40
2023-05-25T08:14:50.884Z,1.40
2023-05-25T08:17:17.725Z,1.50
2023-05-25T08:19:44.518Z,1.40
2023-05-25T08:22:11.421Z,1.60
2023-05-25T08:24:38.317Z,1.88
2023-05-25T08:27:05.503Z,1.48
2023-05-25T08:29:32.362Z,0.95
2023-05-25T08:31:59.299Z,1.23
2023-05-25T08:34:26.149Z,1.52
2023-05-25T08:36:53.289Z,1.40
2023-05-25T08:39:20.248Z,1.40
2023-05-25T08:41:47.213Z,1.45
2023-05-25T08:44:15.464Z,1.40
2023-05-25T08:46:42.777Z,1.45
2023-05-25T08:49:12.030Z,1.60
2023-05-25T08:51:42.990Z,1.55
2023-05-25T08:54:12.258Z,1.40
2023-05-25T08:57:08.141Z,1.55
2023-05-25T08:59:40.935Z,1.33
2023-05-25T09:02:20.090Z,1.30
2023-05-25T09:04:46.826Z,1.30
2023-05-25T09:07:14.162Z,1.45
2023-05-25T09:09:41.576Z,1.23
2023-05-25T09:12:09.558Z,1.70
2023-05-25T09:14:45.821Z,1.13
2023-05-25T09:17:17.404Z,1.50
2023-05-25T09:22:16.588Z,1.60
2023-05-25T09:24:45.317Z,1.13
2023-05-25T09:27:17.573Z,1.60
2023-05-25T09:29:44.874Z,1.23
2023-05-25T09:32:11.729Z,1.40
2023-05-25T09:34:38.588Z,1.35
2023-05-25T09:37:16.415Z,1.50
2023-05-25T09:39:44.587Z,1.15
2023-05-25T09:42:12.016Z,1.38
2023-05-25T09:44:39.589Z,1.40
2023-05-25T09:47:06.749Z,1.20
2023-05-25T09:49:33.566Z,1.23
2023-05-25T09:52:01.164Z,1.27
2023-05-25T09:54:28.164Z,1.13
2023-05-25T09:56:57.803Z,1.52
2023-05-25T09:59:24.690Z,1.52
2023-05-25T10:01:53.533Z,1.08
2023-05-25T10:04:21.044Z,1.33
2023-05-25T10:06:51.780Z,1.30
2023-05-25T10:09:20.103Z,1.30
2023-05-25T10:11:47.697Z,1.30
2023-05-25T10:14:22.426Z,1.27
2023-05-25T10:16:52.415Z,1.20
2023-05-25T10:19:31.934Z,1.40
2023-05-25T10:22:08.268Z,1.38
2023-05-25T10:24:44.312Z,1.60
2023-05-25T10:27:26.399Z,1.17
2023-05-25T10:29:56.986Z,1.77
2023-05-25T10:32:24.894Z,1.50
2023-05-25T10:34:53.363Z,1.40
2023-05-25T10:37:20.877Z,1.55
2023-05-25T10:39:49.937Z,1.98
2023-05-25T10:42:18.956Z,1.77
2023-05-25T10:44:46.704Z,2.28
2023-05-25T10:47:16.029Z,1.83
2023-05-25T10:50:03.300Z,1.40
2023-05-25T10:52:31.957Z,1.80
2023-05-25T10:55:07.586Z,1.85
2023-05-25T10:57:34.460Z,1.67
2023-05-25T11:00:06.545Z,1.60
2023-05-25T11:02:55.813Z,1.95
2023-05-25T11:05:36.214Z,1.73
2023-05-25T11:08:06.437Z,2.05
2023-05-25T11:10:53.069Z,1.70
2023-05-25T11:13:32.046Z,1.50
2023-05-25T11:16:20.621Z,1.52
2023-05-25T11:18:58.093Z,1.67
2023-05-25T11:21:24.983Z,1.60
2023-05-25T11:23:54.838Z,1.83
2023-05-25T11:26:23.206Z,1.58
2023-05-25T11:28:51.858Z,1.60
2023-05-25T11:31:31.684Z,1.60
2023-05-25T11:34:01.285Z,2.00
2023-05-25T11:36:34.038Z,1.80
2023-05-25T11:39:06.647Z,2.05
2023-05-25T11:41:40.624Z,1.60
2023-05-25T11:44:07.389Z,1.48
2023-05-25T11:46:34.970Z,1.35
2023-05-25T11:49:02.099Z,1.52
2023-05-25T11:51:30.498Z,1.10
2023-05-25T11:53:57.253Z,1.70
2023-05-25T11:56:35.112Z,1.50
2023-05-25T11:59:02.760Z,1.92
2023-05-25T12:01:32.179Z,1.80
2023-05-25T12:04:07.835Z,1.60
2023-05-25T12:06:36.888Z,1.55
2023-05-25T12:09:06.421Z,1.50
2023-05-25T12:11:45.350Z,1.70
2023-05-25T12:14:12.220Z,1.50
2023-05-25T12:16:40.652Z,2.03
2023-05-25T12:19:08.919Z,2.53
2023-05-25T12:21:39.038Z,2.00
2023-05-25T12:24:06.476Z,2.00
2023-05-25T12:26:33.647Z,1.40
2023-05-25T12:29:10.278Z,1.70
2023-05-25T12:31:38.943Z,1.95
2023-05-25T12:34:06.827Z,1.60
2023-05-25T12:36:56.422Z,1.60
2023-05-25T12:39:29.365Z,1.77
2023-05-25T12:42:00.014Z,1.55
2023-05-25T12:44:31.721Z,1.27
2023-05-25T12:47:23.497Z,1.35
2023-05-25T12:49:52.534Z,1.40
2023-05-25T12:52:39.838Z,1.60
2023-05-25T12:55:42.652Z,1.85
2023-05-25T12:58:27.712Z,1.45
2023-05-25T13:00:54.594Z,1.45
2023-05-25T13:03:21.318Z,1.58
2023-05-25T13:05:48.308Z,1.60
2023-05-25T13:08:15.756Z,1.55
2023-05-25T13:10:42.672Z,1.63
2023-05-25T13:13:12.055Z,1.50
2023-05-25T13:15:38.832Z,2.00
2023-05-25T13:18:05.737Z,1.75
2023-05-25T13:20:33.007Z,1.60
2023-05-25T13:22:59.858Z,1.20
2023-05-25T13:25:29.817Z,2.20
2023-05-25T13:27:58.152Z,2.05
2023-05-25T13:30:25.276Z,1.73
2023-05-25T13:32:53.237Z,1.73
2023-05-25T13:35:37.336Z,1.60
2023-05-25T13:38:04.419Z,1.73
2023-05-25T13:40:31.252Z,2.22
2023-05-25T13:42:58.221Z,1.80
2023-05-25T13:45:25.883Z,1.67
2023-05-25T13:47:52.889Z,1.75
2023-05-25T13:50:20.581Z,1.65
2023-05-25T13:52:47.370Z,2.10
2023-05-25T13:55:14.168Z,1.52
2023-05-25T13:57:41.051Z,2.45
2023-05-25T14:00:08.509Z,1.77
2023-05-25T14:02:36.848Z,1.95
2023-05-25T14:05:04.072Z,1.90
2023-05-25T14:07:31.297Z,1.88
2023-05-25T14:10:00.122Z,1.77
2023-05-25T14:12:27.488Z,1.50
2023-05-25T14:14:54.312Z,1.52
2023-05-25T14:17:21.151Z,1.70
2023-05-25T14:19:47.966Z,1.45
2023-05-25T14:22:14.860Z,2.00
2023-05-25T14:24:42.106Z,2.17
2023-05-25T14:27:09.069Z,2.05
2023-05-25T14:29:37.091Z,2.08
2023-05-25T14:32:04.236Z,1.90
2023-05-25T14:34:31.099Z,2.05
2023-05-25T14:36:57.848Z,2.08
2023-05-25T14:39:24.693Z,1.90
2023-05-25T14:41:51.538Z,1.40
2023-05-25T14:44:18.259Z,2.08
2023-05-25T14:46:45.162Z,1.67
2023-05-25T14:49:13.803Z,1.48
2023-05-25T14:51:41.062Z,1.83
2023-05-25T14:54:08.581Z,1.65
2023-05-25T14:56:35.867Z,2.15
2023-05-25T14:59:02.714Z,1.95
2023-05-25T15:01:29.776Z,1.83
2023-05-25T15:03:57.214Z,1.90
2023-05-25T15:06:24.110Z,1.95
2023-05-25T15:08:51.152Z,2.30
2023-05-25T15:11:18.314Z,1.92
2023-05-25T15:13:45.409Z,1.45
2023-05-25T15:16:16.702Z,1.45
2023-05-25T15:21:10.814Z,1.83
2023-05-25T15:23:37.634Z,1.83
2023-05-25T15:26:05.004Z,1.98
2023-05-25T15:28:31.964Z,1.90
2023-05-25T15:31:02.362Z,2.00
2023-05-25T15:33:43.699Z,2.33
2023-05-25T15:36:15.217Z,2.33
2023-05-25T15:38:49.494Z,1.48
2023-05-25T15:41:17.663Z,2.65
2023-05-25T15:43:54.844Z,1.83
2023-05-25T15:46:21.709Z,2.10
2023-05-25T15:48:48.540Z,1.75
2023-05-25T15:51:15.679Z,1.90
2023-05-25T15:53:42.457Z,2.17
2023-05-25T15:56:09.301Z,2.00
2023-05-25T15:58:36.266Z,1.83
2023-05-25T16:01:03.134Z,1.83
2023-05-25T16:03:30.174Z,3.10
2023-05-25T16:05:57.440Z,1.77
2023-05-25T16:08:24.256Z,2.15
2023-05-25T16:10:51.140Z,1.88
2023-05-25T16:13:18.288Z,1.80
2023-05-25T16:15:48.487Z,1.90
2023-05-25T16:18:16.678Z,1.90
2023-05-25T16:20:44.180Z,1.95
2023-05-25T16:23:11.229Z,2.90
2023-05-25T16:25:38.342Z,1.80
2023-05-25T16:28:05.235Z,2.10
2023-05-25T16:30:32.085Z,2.00
2023-05-25T16:33:02.297Z,2.30
2023-05-25T16:35:30.423Z,2.25
2023-05-25T16:37:57.284Z,2.40
2023-05-25T16:40:24.183Z,2.40
2023-05-25T16:42:50.982Z,1.95
2023-05-25T16:45:21.237Z,2.78
2023-05-25T16:47:48.195Z,2.38
2023-05-25T16:50:19.013Z,2.70
2023-05-25T16:52:45.820Z,2.72
2023-05-25T16:55:16.471Z,2.30
2023-05-25T16:57:46.997Z,2.40
2023-05-25T17:00:14.558Z,2.88
2023-05-25T17:02:41.495Z,3.53
2023-05-25T17:05:09.300Z,3.08
2023-05-25T17:07:37.697Z,3.13
2023-05-25T17:10:08.530Z,3.20
2023-05-25T17:12:38.838Z,3.60
2023-05-25T17:15:06.245Z,3.10
2023-05-25T17:17:33.094Z,3.22
2023-05-25T17:19:59.979Z,2.65
2023-05-25T17:22:26.812Z,2.92
2023-05-25T17:24:53.579Z,3.03
2023-05-25T17:27:20.489Z,2.90
2023-05-25T17:29:47.247Z,3.50
2023-05-25T17:32:14.074Z,2.80
2023-05-25T17:34:40.889Z,2.88
2023-05-25T17:37:07.703Z,2.80
2023-05-25T17:39:34.506Z,3.25
2023-05-25T17:42:01.568Z,3.80
2023-05-25T17:44:28.337Z,4.10
2023-05-25T17:46:55.101Z,3.97
2023-05-25T17:49:21.919Z,3.70
2023-05-25T17:51:48.782Z,3.70
2023-05-25T17:54:18.609Z,4.05
2023-05-25T17:56:46.493Z,3.38
2023-05-25T17:59:13.472Z,3.20
2023-05-25T18:01:41.006Z,3.58
2023-05-25T18:04:08.092Z,3.15
2023-05-25T18:06:35.182Z,3.35
2023-05-25T18:09:05.238Z,3.92
2023-05-25T18:11:33.596Z,3.50
2023-05-25T18:14:00.629Z,3.55
2023-05-25T18:16:27.526Z,3.78
2023-05-25T18:18:54.382Z,3.58
2023-05-25T18:21:21.164Z,4.55
2023-05-25T18:23:48.204Z,3.78
2023-05-25T18:26:14.986Z,3.38
2023-05-25T18:28:41.938Z,3.60
2023-05-25T18:31:08.823Z,3.67
2023-05-25T18:33:35.661Z,3.85
2023-05-25T18:36:02.594Z,4.40
2023-05-25T18:38:29.473Z,3.50
2023-05-25T18:40:56.341Z,3.85
2023-05-25T18:43:23.117Z,3.58
2023-05-25T18:45:49.938Z,3.67
2023-05-25T18:48:19.181Z,3.72
2023-05-25T18:50:46.712Z,4.47
2023-05-25T18:53:13.499Z,4.00
2023-05-25T18:55:40.480Z,4.43
2023-05-25T18:58:07.449Z,3.70
2023-05-25T19:00:34.378Z,4.22
2023-05-25T19:03:01.552Z,4.45
2023-05-25T19:05:28.489Z,5.20
2023-05-25T19:07:59.539Z,4.25
2023-05-25T19:12:53.500Z,4.60
2023-05-25T19:15:20.457Z,4.75
2023-05-25T19:17:47.430Z,4.18
2023-05-25T19:20:17.645Z,4.50
2023-05-25T19:22:44.638Z,3.95
2023-05-25T19:25:11.527Z,3.97
2023-05-25T19:27:38.612Z,4.70
2023-05-25T19:30:05.973Z,4.22
2023-05-25T19:32:32.991Z,4.63
2023-05-25T19:35:00.204Z,4.20
2023-05-25T19:37:27.327Z,3.83
2023-05-25T19:39:54.055Z,4.10
2023-05-25T19:42:21.002Z,4.32
2023-05-25T19:44:47.836Z,5.10
2023-05-25T19:47:15.130Z,4.18
2023-05-25T19:49:41.956Z,4.35
2023-05-25T19:52:09.075Z,4.10
2023-05-25T19:54:35.909Z,4.25
2023-05-25T19:57:03.159Z,4.60
2023-05-25T19:59:31.261Z,4.07
2023-05-25T20:01:58.506Z,3.90
2023-05-25T20:04:25.485Z,3.97
2023-05-25T20:06:52.681Z,5.25
2023-05-25T20:09:19.508Z,4.78
2023-05-25T20:11:46.291Z,4.13
2023-05-25T20:14:13.132Z,4.50
2023-05-25T20:16:40.137Z,5.03
2023-05-25T20:19:07.600Z,4.63
2023-05-25T20:21:35.876Z,6.03
2023-05-25T20:24:03.522Z,4.97
2023-05-25T20:26:30.438Z,3.92
2023-05-25T20:28:57.456Z,4.25
2023-05-25T20:31:25.272Z,4.68
2023-05-25T20:33:52.272Z,4.45
2023-05-25T20:36:21.682Z,4.55
2023-05-25T20:38:48.532Z,4.10
2023-05-25T20:41:15.548Z,5.03
2023-05-25T20:43:42.319Z,4.18
2023-05-25T20:46:09.532Z,4.15
2023-05-25T20:48:38.271Z,4.15
2023-05-25T20:51:05.036Z,3.60
2023-05-25T20:53:31.935Z,4.55
2023-05-25T20:55:58.790Z,3.33
2023-05-25T20:58:25.571Z,4.78
2023-05-25T21:00:52.625Z,3.72
2023-05-25T21:03:23.432Z,3.83
2023-05-25T21:05:50.235Z,4.18
2023-05-25T21:08:17.098Z,3.00
2023-05-25T21:10:43.892Z,3.63
2023-05-25T21:13:10.913Z,3.35
2023-05-25T21:15:37.672Z,3.22
2023-05-25T21:18:07.022Z,3.28
2023-05-25T21:20:34.143Z,2.60
2023-05-25T21:23:02.547Z,3.25
2023-05-25T21:25:29.967Z,3.10
2023-05-25T21:27:57.277Z,3.15
2023-05-25T21:30:24.497Z,3.10
2023-05-25T21:32:51.418Z,3.20
2023-05-25T21:35:18.290Z,3.30
2023-05-25T21:37:45.512Z,2.90
2023-05-25T21:40:12.712Z,3.13
2023-05-25T21:42:39.496Z,2.58
2023-05-25T21:45:06.741Z,3.15
2023-05-25T21:47:33.521Z,2.60
2023-05-25T21:50:00.279Z,2.97
2023-05-25T21:52:26.992Z,2.78
2023-05-25T21:54:53.754Z,2.70
2023-05-25T21:57:20.566Z,2.72
2023-05-25T21:59:47.502Z,2.75
2023-05-25T22:02:14.299Z,2.67
2023-05-25T22:04:41.140Z,2.67
2023-05-25T22:07:08.306Z,2.33
2023-05-25T22:09:35.085Z,3.10
2023-05-25T22:12:02.354Z,2.42
2023-05-25T22:14:29.328Z,2.38
2023-05-25T22:16:56.160Z,2.42
2023-05-25T22:19:23.177Z,2.45
2023-05-25T22:21:50.084Z,2.70
2023-05-25T22:24:20.633Z,2.50
2023-05-25T22:26:47.816Z,3.07
2023-05-25T22:29:22.453Z,3.65
2023-05-25T22:31:52.527Z,2.90
2023-05-25T22:34:22.303Z,2.60
2023-05-25T22:36:49.040Z,2.60
2023-05-25T22:39:19.199Z,2.40
2023-05-25T22:41:53.296Z,2.17
2023-05-25T22:44:26.430Z,2.25
2023-05-25T22:46:56.917Z,2.60
2023-05-25T22:49:30.218Z,2.57
2023-05-25T22:51:59.880Z,2.50
2023-05-25T22:54:27.836Z,2.50
2023-05-25T22:56:58.191Z,2.60
2023-05-25T22:59:24.946Z,2.83
2023-05-25T23:01:55.575Z,2.28
2023-05-25T23:04:25.557Z,3.10
2023-05-25T23:06:52.378Z,2.70
2023-05-25T23:09:21.568Z,2.60
2023-05-25T23:11:55.758Z,2.55
2023-05-25T23:14:26.292Z,2.58
2023-05-25T23:16:53.469Z,3.60
2023-05-25T23:19:25.806Z,2.75
2023-05-25T23:21:55.875Z,2.97
2023-05-25T23:24:30.015Z,2.67
2023-05-25T23:26:57.114Z,3.45
2023-05-25T23:29:30.629Z,2.90
2023-05-25T23:32:00.835Z,2.70
2023-05-25T23:34:28.599Z,2.88
2023-05-25T23:36:58.882Z,2.83
2023-05-25T23:39:29.012Z,2.97
2023-05-25T23:42:02.340Z,3.35
2023-05-25T23:44:33.548Z,3.22
2023-05-25T23:47:05.809Z,2.25
2023-05-25T23:49:32.586Z,2.28
2023-05-25T23:52:02.453Z,2.55
2023-05-25T23:54:29.310Z,2.45
2023-05-25T23:57:00.034Z,2.30
2023-05-25T23:59:30.834Z,2.10
